sensor_id;sensor_type;location;lat;lon;timestamp;P1;durP1;ratioP1;P2;durP2;ratioP2
85725;SDS011;76169;47.278;10.984;2024-02-14T00:02:17;1.42;;;1.15;;
85725;SDS011;76169;47.278;10.984;2024-02-14T00:04:43;1.15;;;1.05;;
85725;SDS011;76169;47.278;10.984;2024-02-14T00:07:09;1.48;;;1.38;;
85725;SDS011;76169;47.278;10.984;2024-02-14T00:09:35;1.38;;;1.13;;
85725;SDS011;76169;47.278;10.984;2024-02-14T00:12:01;1.67;;;1.10;;
85725;SDS011;76169;47.278;10.984;2024-02-14T00:14:27;1.15;;;1.00;;
85725;SDS011;76169;47.278;10.984;2024-02-14T00:16:53;1.33;;;1.20;;
85725;SDS011;76169;47.278;10.984;2024-02-14T00:19:19;1.30;;;1.20;;
85725;SDS011;76169;47.278;10.984;2024-02-14T00:21:45;1.20;;;1.10;;
85725;SDS011;76169;47.278;10.984;2024-02-14T00:24:11;1.30;;;1.20;;
85725;SDS011;76169;47.278;10.984;2024-02-14T00:26:37;1.27;;;1.17;;
85725;SDS011;76169;47.278;10.984;2024-02-14T00:29:04;1.10;;;1.00;;
85725;SDS011;76169;47.278;10.984;2024-02-14T00:31:30;1.42;;;1.33;;
85725;SDS011;76169;47.278;10.984;2024-02-14T00:33:56;1.30;;;1.20;;
85725;SDS011;76169;47.278;10.984;2024-02-14T00:36:23;1.63;;;1.20;;
85725;SDS011;76169;47.278;10.984;2024-02-14T00:38:49;2.75;;;1.35;;
85725;SDS011;76169;47.278;10.984;2024-02-14T00:41:15;1.40;;;1.17;;
85725;SDS011;76169;47.278;10.984;2024-02-14T00:43:41;2.03;;;1.30;;
85725;SDS011;76169;47.278;10.984;2024-02-14T00:46:07;1.30;;;1.20;;
85725;SDS011;76169;47.278;10.984;2024-02-14T00:48:33;1.17;;;1.08;;
85725;SDS011;76169;47.278;10.984;2024-02-14T00:50:59;1.52;;;1.13;;
85725;SDS011;76169;47.278;10.984;2024-02-14T00:53:25;1.45;;;1.20;;
85725;SDS011;76169;47.278;10.984;2024-02-14T00:55:51;1.17;;;1.08;;
85725;SDS011;76169;47.278;10.984;2024-02-14T00:58:17;1.30;;;1.20;;
85725;SDS011;76169;47.278;10.984;2024-02-14T01:00:43;1.35;;;1.25;;
85725;SDS011;76169;47.278;10.984;2024-02-14T01:03:09;1.50;;;1.20;;
85725;SDS011;76169;47.278;10.984;2024-02-14T01:05:38;1.20;;;1.00;;
85725;SDS011;76169;47.278;10.984;2024-02-14T01:08:04;1.10;;;1.00;;
85725;SDS011;76169;47.278;10.984;2024-02-14T01:10:30;1.40;;;1.30;;
85725;SDS011;76169;47.278;10.984;2024-02-14T01:12:56;1.25;;;1.10;;
85725;SDS011;76169;47.278;10.984;2024-02-14T01:15:22;1.27;;;1.17;;
85725;SDS011;76169;47.278;10.984;2024-02-14T01:17:48;1.20;;;1.10;;
85725;SDS011;76169;47.278;10.984;2024-02-14T01:20:15;1.77;;;1.40;;
85725;SDS011;76169;47.278;10.984;2024-02-14T01:22:41;1.20;;;1.10;;
85725;SDS011;76169;47.278;10.984;2024-02-14T01:25:07;1.10;;;0.98;;
85725;SDS011;76169;47.278;10.984;2024-02-14T01:27:35;1.30;;;1.20;;
85725;SDS011;76169;47.278;10.984;2024-02-14T01:30:01;1.15;;;1.05;;
85725;SDS011;76169;47.278;10.984;2024-02-14T01:32:27;1.10;;;1.00;;
85725;SDS011;76169;47.278;10.984;2024-02-14T01:34:54;1.15;;;1.05;;
85725;SDS011;76169;47.278;10.984;2024-02-14T01:37:20;1.20;;;1.10;;
85725;SDS011;76169;47.278;10.984;2024-02-14T01:39:46;1.10;;;1.00;;
85725;SDS011;76169;47.278;10.984;2024-02-14T01:42:12;1.00;;;1.00;;
85725;SDS011;76169;47.278;10.984;2024-02-14T01:44:39;1.67;;;1.13;;
85725;SDS011;76169;47.278;10.984;2024-02-14T01:47:05;1.10;;;1.00;;
85725;SDS011;76169;47.278;10.984;2024-02-14T01:49:32;1.20;;;1.10;;
85725;SDS011;76169;47.278;10.984;2024-02-14T01:51:58;1.35;;;1.17;;
85725;SDS011;76169;47.278;10.984;2024-02-14T01:54:26;0.88;;;0.80;;
85725;SDS011;76169;47.278;10.984;2024-02-14T01:56:53;1.30;;;1.10;;
85725;SDS011;76169;47.278;10.984;2024-02-14T01:59:20;1.13;;;1.02;;
85725;SDS011;76169;47.278;10.984;2024-02-14T02:01:46;1.30;;;1.20;;
85725;SDS011;76169;47.278;10.984;2024-02-14T02:04:12;1.08;;;1.00;;
85725;SDS011;76169;47.278;10.984;2024-02-14T02:06:39;1.10;;;0.98;;
85725;SDS011;76169;47.278;10.984;2024-02-14T02:09:07;1.25;;;0.93;;
85725;SDS011;76169;47.278;10.984;2024-02-14T02:11:46;2.22;;;1.35;;
85725;SDS011;76169;47.278;10.984;2024-02-14T02:14:15;1.42;;;1.05;;
85725;SDS011;76169;47.278;10.984;2024-02-14T02:16:42;1.40;;;1.10;;
85725;SDS011;76169;47.278;10.984;2024-02-14T02:19:08;1.13;;;1.02;;
85725;SDS011;76169;47.278;10.984;2024-02-14T02:21:34;1.23;;;1.08;;
85725;SDS011;76169;47.278;10.984;2024-02-14T02:24:01;1.17;;;1.08;;
85725;SDS011;76169;47.278;10.984;2024-02-14T02:26:27;1.17;;;1.08;;
85725;SDS011;76169;47.278;10.984;2024-02-14T02:28:53;1.17;;;1.08;;
85725;SDS011;76169;47.278;10.984;2024-02-14T02:31:19;1.30;;;1.20;;
85725;SDS011;76169;47.278;10.984;2024-02-14T02:33:46;1.20;;;1.10;;
85725;SDS011;76169;47.278;10.984;2024-02-14T02:36:12;1.30;;;1.20;;
85725;SDS011;76169;47.278;10.984;2024-02-14T02:38:38;1.25;;;1.15;;
85725;SDS011;76169;47.278;10.984;2024-02-14T02:41:04;1.20;;;0.90;;
85725;SDS011;76169;47.278;10.984;2024-02-14T02:43:32;1.23;;;1.05;;
85725;SDS011;76169;47.278;10.984;2024-02-14T02:45:58;1.20;;;0.95;;
85725;SDS011;76169;47.278;10.984;2024-02-14T02:48:24;1.20;;;1.10;;
85725;SDS011;76169;47.278;10.984;2024-02-14T02:50:50;1.15;;;1.00;;
85725;SDS011;76169;47.278;10.984;2024-02-14T02:53:17;1.30;;;1.20;;
85725;SDS011;76169;47.278;10.984;2024-02-14T02:55:43;1.00;;;0.98;;
85725;SDS011;76169;47.278;10.984;2024-02-14T02:58:09;0.98;;;0.90;;
85725;SDS011;76169;47.278;10.984;2024-02-14T03:00:35;1.35;;;1.13;;
85725;SDS011;76169;47.278;10.984;2024-02-14T03:03:01;1.20;;;0.98;;
85725;SDS011;76169;47.278;10.984;2024-02-14T03:05:29;1.30;;;1.17;;
85725;SDS011;76169;47.278;10.984;2024-02-14T03:07:58;1.00;;;0.85;;
85725;SDS011;76169;47.278;10.984;2024-02-14T03:10:24;1.02;;;0.93;;
85725;SDS011;76169;47.278;10.984;2024-02-14T03:12:50;0.80;;;0.80;;
85725;SDS011;76169;47.278;10.984;2024-02-14T03:15:17;1.52;;;1.23;;
85725;SDS011;76169;47.278;10.984;2024-02-14T03:17:43;1.00;;;0.90;;
85725;SDS011;76169;47.278;10.984;2024-02-14T03:20:10;1.20;;;1.10;;
85725;SDS011;76169;47.278;10.984;2024-02-14T03:22:42;1.40;;;1.00;;
85725;SDS011;76169;47.278;10.984;2024-02-14T03:25:12;1.33;;;1.23;;
85725;SDS011;76169;47.278;10.984;2024-02-14T03:27:39;1.10;;;1.00;;
85725;SDS011;76169;47.278;10.984;2024-02-14T03:30:05;1.10;;;1.00;;
85725;SDS011;76169;47.278;10.984;2024-02-14T03:32:32;1.10;;;1.00;;
85725;SDS011;76169;47.278;10.984;2024-02-14T03:34:58;1.40;;;1.30;;
85725;SDS011;76169;47.278;10.984;2024-02-14T03:37:26;1.23;;;1.00;;
85725;SDS011;76169;47.278;10.984;2024-02-14T03:39:52;1.55;;;1.10;;
85725;SDS011;76169;47.278;10.984;2024-02-14T03:42:18;1.10;;;1.00;;
85725;SDS011;76169;47.278;10.984;2024-02-14T03:44:44;1.10;;;1.00;;
85725;SDS011;76169;47.278;10.984;2024-02-14T03:47:11;1.55;;;1.00;;
85725;SDS011;76169;47.278;10.984;2024-02-14T03:49:38;1.20;;;1.02;;
85725;SDS011;76169;47.278;10.984;2024-02-14T03:52:06;1.15;;;1.05;;
85725;SDS011;76169;47.278;10.984;2024-02-14T03:54:37;1.30;;;0.98;;
85725;SDS011;76169;47.278;10.984;2024-02-14T03:57:04;1.10;;;1.00;;
85725;SDS011;76169;47.278;10.984;2024-02-14T03:59:36;1.13;;;1.00;;
85725;SDS011;76169;47.278;10.984;2024-02-14T04:02:04;1.60;;;1.17;;
85725;SDS011;76169;47.278;10.984;2024-02-14T04:04:33;1.35;;;1.20;;
85725;SDS011;76169;47.278;10.984;2024-02-14T04:07:00;1.02;;;1.00;;
85725;SDS011;76169;47.278;10.984;2024-02-14T04:09:29;0.82;;;0.82;;
85725;SDS011;76169;47.278;10.984;2024-02-14T04:11:55;1.73;;;1.00;;
85725;SDS011;76169;47.278;10.984;2024-02-14T04:14:21;1.23;;;1.13;;
85725;SDS011;76169;47.278;10.984;2024-02-14T04:16:47;1.00;;;0.90;;
85725;SDS011;76169;47.278;10.984;2024-02-14T04:19:13;1.25;;;1.15;;
85725;SDS011;76169;47.278;10.984;2024-02-14T04:21:42;1.10;;;1.00;;
85725;SDS011;76169;47.278;10.984;2024-02-14T04:24:08;1.50;;;1.10;;
85725;SDS011;76169;47.278;10.984;2024-02-14T04:26:34;1.23;;;1.00;;
85725;SDS011;76169;47.278;10.984;2024-02-14T04:29:00;1.10;;;1.00;;
85725;SDS011;76169;47.278;10.984;2024-02-14T04:31:27;1.20;;;1.10;;
85725;SDS011;76169;47.278;10.984;2024-02-14T04:33:55;1.67;;;1.13;;
85725;SDS011;76169;47.278;10.984;2024-02-14T04:36:21;1.58;;;0.95;;
85725;SDS011;76169;47.278;10.984;2024-02-14T04:38:50;1.05;;;0.95;;
85725;SDS011;76169;47.278;10.984;2024-02-14T04:41:20;1.02;;;0.93;;
85725;SDS011;76169;47.278;10.984;2024-02-14T04:43:47;0.90;;;0.90;;
85725;SDS011;76169;47.278;10.984;2024-02-14T04:46:13;1.10;;;1.00;;
85725;SDS011;76169;47.278;10.984;2024-02-14T04:48:40;1.10;;;1.00;;
85725;SDS011;76169;47.278;10.984;2024-02-14T04:51:06;1.27;;;0.90;;
85725;SDS011;76169;47.278;10.984;2024-02-14T04:53:32;1.15;;;1.05;;
85725;SDS011;76169;47.278;10.984;2024-02-14T04:55:59;0.80;;;0.80;;
85725;SDS011;76169;47.278;10.984;2024-02-14T04:58:26;1.67;;;1.02;;
85725;SDS011;76169;47.278;10.984;2024-02-14T05:00:52;1.48;;;1.25;;
85725;SDS011;76169;47.278;10.984;2024-02-14T05:03:20;1.02;;;0.93;;
85725;SDS011;76169;47.278;10.984;2024-02-14T05:05:46;1.20;;;1.05;;
85725;SDS011;76169;47.278;10.984;2024-02-14T05:08:12;1.27;;;1.10;;
85725;SDS011;76169;47.278;10.984;2024-02-14T05:10:38;1.08;;;1.00;;
85725;SDS011;76169;47.278;10.984;2024-02-14T05:13:04;1.05;;;0.95;;
85725;SDS011;76169;47.278;10.984;2024-02-14T05:15:31;1.15;;;1.05;;
85725;SDS011;76169;47.278;10.984;2024-02-14T05:17:57;2.42;;;1.02;;
85725;SDS011;76169;47.278;10.984;2024-02-14T05:20:23;0.82;;;0.82;;
85725;SDS011;76169;47.278;10.984;2024-02-14T05:22:49;1.30;;;1.05;;
85725;SDS011;76169;47.278;10.984;2024-02-14T05:25:15;1.30;;;1.20;;
85725;SDS011;76169;47.278;10.984;2024-02-14T05:27:41;1.10;;;1.00;;
85725;SDS011;76169;47.278;10.984;2024-02-14T05:30:07;1.20;;;1.00;;
85725;SDS011;76169;47.278;10.984;2024-02-14T05:32:34;1.10;;;1.00;;
85725;SDS011;76169;47.278;10.984;2024-02-14T05:35:00;1.13;;;1.02;;
85725;SDS011;76169;47.278;10.984;2024-02-14T05:37:29;1.23;;;1.10;;
85725;SDS011;76169;47.278;10.984;2024-02-14T05:39:56;1.20;;;1.10;;
85725;SDS011;76169;47.278;10.984;2024-02-14T05:42:22;1.35;;;1.15;;
85725;SDS011;76169;47.278;10.984;2024-02-14T05:44:48;1.83;;;0.93;;
85725;SDS011;76169;47.278;10.984;2024-02-14T05:47:14;0.90;;;0.90;;
85725;SDS011;76169;47.278;10.984;2024-02-14T05:49:40;1.15;;;1.05;;
85725;SDS011;76169;47.278;10.984;2024-02-14T05:52:07;1.40;;;1.30;;
85725;SDS011;76169;47.278;10.984;2024-02-14T05:54:33;1.25;;;1.10;;
85725;SDS011;76169;47.278;10.984;2024-02-14T05:56:59;1.08;;;0.98;;
85725;SDS011;76169;47.278;10.984;2024-02-14T05:59:29;0.93;;;0.93;;
85725;SDS011;76169;47.278;10.984;2024-02-14T06:01:55;1.35;;;1.25;;
85725;SDS011;76169;47.278;10.984;2024-02-14T06:04:21;1.15;;;1.05;;
85725;SDS011;76169;47.278;10.984;2024-02-14T06:06:48;1.40;;;1.30;;
85725;SDS011;76169;47.278;10.984;2024-02-14T06:09:14;1.38;;;1.10;;
85725;SDS011;76169;47.278;10.984;2024-02-14T06:11:40;1.20;;;0.95;;
85725;SDS011;76169;47.278;10.984;2024-02-14T06:14:07;1.33;;;1.02;;
85725;SDS011;76169;47.278;10.984;2024-02-14T06:16:33;1.05;;;0.95;;
85725;SDS011;76169;47.278;10.984;2024-02-14T06:19:00;1.27;;;1.17;;
85725;SDS011;76169;47.278;10.984;2024-02-14T06:21:26;1.17;;;1.08;;
85725;SDS011;76169;47.278;10.984;2024-02-14T06:23:52;1.27;;;1.17;;
85725;SDS011;76169;47.278;10.984;2024-02-14T06:26:18;1.35;;;1.10;;
85725;SDS011;76169;47.278;10.984;2024-02-14T06:28:45;1.27;;;1.17;;
85725;SDS011;76169;47.278;10.984;2024-02-14T06:31:11;1.10;;;1.00;;
85725;SDS011;76169;47.278;10.984;2024-02-14T06:33:37;1.42;;;1.30;;
85725;SDS011;76169;47.278;10.984;2024-02-14T06:36:03;1.60;;;1.27;;
85725;SDS011;76169;47.278;10.984;2024-02-14T06:38:31;1.42;;;1.00;;
85725;SDS011;76169;47.278;10.984;2024-02-14T06:40:57;1.40;;;1.13;;
85725;SDS011;76169;47.278;10.984;2024-02-14T06:43:23;1.90;;;1.40;;
85725;SDS011;76169;47.278;10.984;2024-02-14T06:45:49;1.70;;;1.30;;
85725;SDS011;76169;47.278;10.984;2024-02-14T06:48:15;1.65;;;1.20;;
85725;SDS011;76169;47.278;10.984;2024-02-14T06:50:41;1.55;;;1.45;;
85725;SDS011;76169;47.278;10.984;2024-02-14T06:53:07;1.40;;;1.30;;
85725;SDS011;76169;47.278;10.984;2024-02-14T06:55:33;1.58;;;1.40;;
85725;SDS011;76169;47.278;10.984;2024-02-14T06:57:59;1.63;;;1.48;;
85725;SDS011;76169;47.278;10.984;2024-02-14T07:00:25;1.27;;;1.17;;
85725;SDS011;76169;47.278;10.984;2024-02-14T07:02:53;1.67;;;1.58;;
85725;SDS011;76169;47.278;10.984;2024-02-14T07:05:19;1.95;;;1.40;;
85725;SDS011;76169;47.278;10.984;2024-02-14T07:07:45;1.83;;;1.50;;
85725;SDS011;76169;47.278;10.984;2024-02-14T07:10:11;1.40;;;1.30;;
85725;SDS011;76169;47.278;10.984;2024-02-14T07:12:37;1.90;;;1.67;;
85725;SDS011;76169;47.278;10.984;2024-02-14T07:15:04;2.85;;;1.52;;
85725;SDS011;76169;47.278;10.984;2024-02-14T07:17:31;2.33;;;1.50;;
85725;SDS011;76169;47.278;10.984;2024-02-14T07:19:57;1.55;;;1.30;;
85725;SDS011;76169;47.278;10.984;2024-02-14T07:22:23;2.40;;;1.67;;
85725;SDS011;76169;47.278;10.984;2024-02-14T07:24:49;1.42;;;1.33;;
85725;SDS011;76169;47.278;10.984;2024-02-14T07:27:15;1.55;;;1.45;;
85725;SDS011;76169;47.278;10.984;2024-02-14T07:29:42;3.00;;;1.65;;
85725;SDS011;76169;47.278;10.984;2024-02-14T07:32:09;1.25;;;1.15;;
85725;SDS011;76169;47.278;10.984;2024-02-14T07:34:37;1.70;;;1.40;;
85725;SDS011;76169;47.278;10.984;2024-02-14T07:37:04;1.52;;;1.40;;
85725;SDS011;76169;47.278;10.984;2024-02-14T07:39:30;1.92;;;1.60;;
85725;SDS011;76169;47.278;10.984;2024-02-14T07:41:56;1.50;;;1.40;;
85725;SDS011;76169;47.278;10.984;2024-02-14T07:44:23;1.63;;;1.50;;
85725;SDS011;76169;47.278;10.984;2024-02-14T07:46:49;1.40;;;1.30;;
85725;SDS011;76169;47.278;10.984;2024-02-14T07:49:15;1.50;;;1.40;;
85725;SDS011;76169;47.278;10.984;2024-02-14T07:51:42;1.92;;;1.48;;
85725;SDS011;76169;47.278;10.984;2024-02-14T07:54:08;1.60;;;1.50;;
85725;SDS011;76169;47.278;10.984;2024-02-14T07:56:34;1.45;;;1.35;;
85725;SDS011;76169;47.278;10.984;2024-02-14T07:59:00;1.60;;;1.50;;
85725;SDS011;76169;47.278;10.984;2024-02-14T08:01:26;1.80;;;1.50;;
85725;SDS011;76169;47.278;10.984;2024-02-14T08:03:53;2.10;;;1.25;;
85725;SDS011;76169;47.278;10.984;2024-02-14T08:06:19;2.15;;;1.90;;
85725;SDS011;76169;47.278;10.984;2024-02-14T08:08:45;1.83;;;1.48;;
85725;SDS011;76169;47.278;10.984;2024-02-14T08:11:13;1.67;;;1.58;;
85725;SDS011;76169;47.278;10.984;2024-02-14T08:13:39;1.63;;;1.27;;
85725;SDS011;76169;47.278;10.984;2024-02-14T08:16:06;1.70;;;1.60;;
85725;SDS011;76169;47.278;10.984;2024-02-14T08:18:32;1.85;;;1.50;;
85725;SDS011;76169;47.278;10.984;2024-02-14T08:20:58;1.58;;;1.48;;
85725;SDS011;76169;47.278;10.984;2024-02-14T08:23:24;2.25;;;1.95;;
85725;SDS011;76169;47.278;10.984;2024-02-14T08:25:50;2.20;;;2.00;;
85725;SDS011;76169;47.278;10.984;2024-02-14T08:28:16;1.98;;;1.63;;
85725;SDS011;76169;47.278;10.984;2024-02-14T08:30:43;1.58;;;1.40;;
85725;SDS011;76169;47.278;10.984;2024-02-14T08:33:09;1.58;;;1.30;;
85725;SDS011;76169;47.278;10.984;2024-02-14T08:35:39;2.40;;;1.88;;
85725;SDS011;76169;47.278;10.984;2024-02-14T08:38:05;1.77;;;1.55;;
85725;SDS011;76169;47.278;10.984;2024-02-14T08:40:31;1.50;;;1.40;;
85725;SDS011;76169;47.278;10.984;2024-02-14T08:42:57;1.77;;;1.65;;
85725;SDS011;76169;47.278;10.984;2024-02-14T08:45:24;1.80;;;1.55;;
85725;SDS011;76169;47.278;10.984;2024-02-14T08:47:50;1.73;;;1.63;;
85725;SDS011;76169;47.278;10.984;2024-02-14T08:50:16;1.85;;;1.63;;
85725;SDS011;76169;47.278;10.984;2024-02-14T08:52:43;2.00;;;1.60;;
85725;SDS011;76169;47.278;10.984;2024-02-14T08:55:09;2.00;;;1.80;;
85725;SDS011;76169;47.278;10.984;2024-02-14T08:57:41;3.05;;;1.50;;
85725;SDS011;76169;47.278;10.984;2024-02-14T09:00:08;1.67;;;1.40;;
85725;SDS011;76169;47.278;10.984;2024-02-14T09:02:35;1.75;;;1.60;;
85725;SDS011;76169;47.278;10.984;2024-02-14T09:05:02;2.00;;;1.80;;
85725;SDS011;76169;47.278;10.984;2024-02-14T09:07:30;1.88;;;1.58;;
85725;SDS011;76169;47.278;10.984;2024-02-14T09:09:58;1.73;;;1.60;;
85725;SDS011;76169;47.278;10.984;2024-02-14T09:12:24;2.00;;;1.80;;
85725;SDS011;76169;47.278;10.984;2024-02-14T09:14:50;1.63;;;1.42;;
85725;SDS011;76169;47.278;10.984;2024-02-14T09:17:16;1.80;;;1.65;;
85725;SDS011;76169;47.278;10.984;2024-02-14T09:19:42;1.45;;;1.35;;
85725;SDS011;76169;47.278;10.984;2024-02-14T09:22:08;2.22;;;1.67;;
85725;SDS011;76169;47.278;10.984;2024-02-14T09:24:35;1.63;;;1.50;;
85725;SDS011;76169;47.278;10.984;2024-02-14T09:27:01;1.83;;;1.52;;
85725;SDS011;76169;47.278;10.984;2024-02-14T09:29:27;1.75;;;1.65;;
85725;SDS011;76169;47.278;10.984;2024-02-14T09:31:54;1.40;;;1.30;;
85725;SDS011;76169;47.278;10.984;2024-02-14T09:34:20;1.40;;;1.30;;
85725;SDS011;76169;47.278;10.984;2024-02-14T09:36:49;2.40;;;1.55;;
85725;SDS011;76169;47.278;10.984;2024-02-14T09:39:17;1.70;;;1.60;;
85725;SDS011;76169;47.278;10.984;2024-02-14T09:41:44;1.77;;;1.45;;
85725;SDS011;76169;47.278;10.984;2024-02-14T09:44:12;1.50;;;1.40;;
85725;SDS011;76169;47.278;10.984;2024-02-14T09:46:38;1.80;;;1.60;;
85725;SDS011;76169;47.278;10.984;2024-02-14T09:49:05;1.63;;;1.30;;
85725;SDS011;76169;47.278;10.984;2024-02-14T09:51:32;1.52;;;1.42;;
85725;SDS011;76169;47.278;10.984;2024-02-14T09:53:59;1.63;;;1.40;;
85725;SDS011;76169;47.278;10.984;2024-02-14T09:56:27;1.52;;;1.38;;
85725;SDS011;76169;47.278;10.984;2024-02-14T09:58:54;1.45;;;1.30;;
85725;SDS011;76169;47.278;10.984;2024-02-14T10:01:24;2.13;;;1.42;;
85725;SDS011;76169;47.278;10.984;2024-02-14T10:03:50;1.50;;;1.40;;
85725;SDS011;76169;47.278;10.984;2024-02-14T10:06:17;2.15;;;1.50;;
85725;SDS011;76169;47.278;10.984;2024-02-14T10:08:50;1.33;;;1.23;;
85725;SDS011;76169;47.278;10.984;2024-02-14T10:11:16;1.30;;;1.20;;
85725;SDS011;76169;47.278;10.984;2024-02-14T10:13:46;1.20;;;1.13;;
85725;SDS011;76169;47.278;10.984;2024-02-14T10:16:13;1.50;;;1.40;;
85725;SDS011;76169;47.278;10.984;2024-02-14T10:18:39;1.95;;;1.60;;
85725;SDS011;76169;47.278;10.984;2024-02-14T10:21:05;1.90;;;1.40;;
85725;SDS011;76169;47.278;10.984;2024-02-14T10:23:31;1.50;;;1.40;;
85725;SDS011;76169;47.278;10.984;2024-02-14T10:25:57;1.50;;;1.35;;
85725;SDS011;76169;47.278;10.984;2024-02-14T10:28:24;1.50;;;1.40;;
85725;SDS011;76169;47.278;10.984;2024-02-14T10:30:50;1.63;;;1.52;;
85725;SDS011;76169;47.278;10.984;2024-02-14T10:33:16;1.85;;;1.27;;
85725;SDS011;76169;47.278;10.984;2024-02-14T10:35:44;1.45;;;1.27;;
85725;SDS011;76169;47.278;10.984;2024-02-14T10:38:10;1.38;;;1.25;;
85725;SDS011;76169;47.278;10.984;2024-02-14T10:40:37;1.65;;;1.35;;
85725;SDS011;76169;47.278;10.984;2024-02-14T10:43:04;2.13;;;1.60;;
85725;SDS011;76169;47.278;10.984;2024-02-14T10:45:30;1.83;;;1.60;;
85725;SDS011;76169;47.278;10.984;2024-02-14T10:47:56;1.30;;;1.20;;
85725;SDS011;76169;47.278;10.984;2024-02-14T10:50:24;2.10;;;1.60;;
85725;SDS011;76169;47.278;10.984;2024-02-14T10:52:51;1.40;;;1.30;;
85725;SDS011;76169;47.278;10.984;2024-02-14T10:55:18;1.38;;;1.20;;
85725;SDS011;76169;47.278;10.984;2024-02-14T10:57:47;1.85;;;1.60;;
85725;SDS011;76169;47.278;10.984;2024-02-14T11:00:15;2.55;;;1.25;;
85725;SDS011;76169;47.278;10.984;2024-02-14T11:02:43;1.38;;;1.20;;
85725;SDS011;76169;47.278;10.984;2024-02-14T11:05:15;1.30;;;1.20;;
85725;SDS011;76169;47.278;10.984;2024-02-14T11:07:45;1.13;;;1.02;;
85725;SDS011;76169;47.278;10.984;2024-02-14T11:10:15;1.98;;;1.27;;
85725;SDS011;76169;47.278;10.984;2024-02-14T11:12:41;1.65;;;1.30;;
85725;SDS011;76169;47.278;10.984;2024-02-14T11:15:11;1.50;;;1.25;;
85725;SDS011;76169;47.278;10.984;2024-02-14T11:17:40;2.05;;;1.30;;
85725;SDS011;76169;47.278;10.984;2024-02-14T11:20:12;1.67;;;1.50;;
85725;SDS011;76169;47.278;10.984;2024-02-14T11:22:39;2.30;;;1.30;;
85725;SDS011;76169;47.278;10.984;2024-02-14T11:25:14;1.40;;;1.27;;
85725;SDS011;76169;47.278;10.984;2024-02-14T11:27:46;1.17;;;1.00;;
85725;SDS011;76169;47.278;10.984;2024-02-14T11:30:12;2.85;;;1.30;;
85725;SDS011;76169;47.278;10.984;2024-02-14T11:32:40;2.38;;;1.40;;
85725;SDS011;76169;47.278;10.984;2024-02-14T11:35:07;1.42;;;1.33;;
85725;SDS011;76169;47.278;10.984;2024-02-14T11:37:37;1.75;;;1.30;;
85725;SDS011;76169;47.278;10.984;2024-02-14T11:40:04;1.20;;;1.10;;
85725;SDS011;76169;47.278;10.984;2024-02-14T11:42:32;1.42;;;1.33;;
85725;SDS011;76169;47.278;10.984;2024-02-14T11:44:58;1.95;;;1.45;;
85725;SDS011;76169;47.278;10.984;2024-02-14T11:47:24;1.25;;;1.15;;
85725;SDS011;76169;47.278;10.984;2024-02-14T11:49:50;2.55;;;1.20;;
85725;SDS011;76169;47.278;10.984;2024-02-14T11:52:17;1.50;;;1.35;;
85725;SDS011;76169;47.278;10.984;2024-02-14T11:54:47;1.75;;;1.42;;
85725;SDS011;76169;47.278;10.984;2024-02-14T11:57:16;2.47;;;1.42;;
85725;SDS011;76169;47.278;10.984;2024-02-14T11:59:43;1.45;;;1.30;;
85725;SDS011;76169;47.278;10.984;2024-02-14T12:02:11;1.65;;;1.27;;
85725;SDS011;76169;47.278;10.984;2024-02-14T12:04:38;2.40;;;1.40;;
85725;SDS011;76169;47.278;10.984;2024-02-14T12:07:04;1.50;;;1.30;;
85725;SDS011;76169;47.278;10.984;2024-02-14T12:09:30;2.03;;;1.17;;
85725;SDS011;76169;47.278;10.984;2024-02-14T12:11:56;1.25;;;1.15;;
85725;SDS011;76169;47.278;10.984;2024-02-14T12:14:22;1.42;;;1.30;;
85725;SDS011;76169;47.278;10.984;2024-02-14T12:16:56;1.52;;;1.35;;
85725;SDS011;76169;47.278;10.984;2024-02-14T12:19:22;1.70;;;1.30;;
85725;SDS011;76169;47.278;10.984;2024-02-14T12:21:48;1.65;;;1.20;;
85725;SDS011;76169;47.278;10.984;2024-02-14T12:24:15;1.30;;;1.20;;
85725;SDS011;76169;47.278;10.984;2024-02-14T12:26:41;1.30;;;1.00;;
85725;SDS011;76169;47.278;10.984;2024-02-14T12:29:08;1.42;;;1.20;;
85725;SDS011;76169;47.278;10.984;2024-02-14T12:31:38;1.48;;;1.08;;
85725;SDS011;76169;47.278;10.984;2024-02-14T12:34:04;1.35;;;1.25;;
85725;SDS011;76169;47.278;10.984;2024-02-14T12:36:30;1.35;;;1.20;;
85725;SDS011;76169;47.278;10.984;2024-02-14T12:38:58;1.10;;;1.00;;
85725;SDS011;76169;47.278;10.984;2024-02-14T12:41:24;1.20;;;1.00;;
85725;SDS011;76169;47.278;10.984;2024-02-14T12:43:54;1.65;;;1.48;;
85725;SDS011;76169;47.278;10.984;2024-02-14T12:46:23;1.10;;;1.00;;
85725;SDS011;76169;47.278;10.984;2024-02-14T12:48:49;1.20;;;1.08;;
85725;SDS011;76169;47.278;10.984;2024-02-14T12:51:15;1.10;;;1.00;;
85725;SDS011;76169;47.278;10.984;2024-02-14T12:53:42;1.15;;;1.05;;
85725;SDS011;76169;47.278;10.984;2024-02-14T12:56:08;1.10;;;1.00;;
85725;SDS011;76169;47.278;10.984;2024-02-14T12:58:34;1.80;;;1.20;;
85725;SDS011;76169;47.278;10.984;2024-02-14T13:01:01;1.38;;;1.10;;
85725;SDS011;76169;47.278;10.984;2024-02-14T13:03:30;1.02;;;0.90;;
85725;SDS011;76169;47.278;10.984;2024-02-14T13:05:56;1.55;;;1.00;;
85725;SDS011;76169;47.278;10.984;2024-02-14T13:08:22;1.40;;;1.25;;
85725;SDS011;76169;47.278;10.984;2024-02-14T13:10:48;1.42;;;1.33;;
85725;SDS011;76169;47.278;10.984;2024-02-14T13:13:14;1.17;;;1.00;;
85725;SDS011;76169;47.278;10.984;2024-02-14T13:15:40;1.15;;;1.05;;
85725;SDS011;76169;47.278;10.984;2024-02-14T13:18:09;1.30;;;1.10;;
85725;SDS011;76169;47.278;10.984;2024-02-14T13:20:35;1.30;;;1.17;;
85725;SDS011;76169;47.278;10.984;2024-02-14T13:23:02;1.13;;;1.02;;
85725;SDS011;76169;47.278;10.984;2024-02-14T13:25:34;1.08;;;0.98;;
85725;SDS011;76169;47.278;10.984;2024-02-14T13:28:01;1.42;;;0.95;;
85725;SDS011;76169;47.278;10.984;2024-02-14T13:30:27;1.55;;;1.10;;
85725;SDS011;76169;47.278;10.984;2024-02-14T13:32:55;1.83;;;1.20;;
85725;SDS011;76169;47.278;10.984;2024-02-14T13:35:21;1.63;;;1.05;;
85725;SDS011;76169;47.278;10.984;2024-02-14T13:37:48;1.30;;;1.20;;
85725;SDS011;76169;47.278;10.984;2024-02-14T13:40:14;1.58;;;1.10;;
85725;SDS011;76169;47.278;10.984;2024-02-14T13:42:40;1.30;;;1.13;;
85725;SDS011;76169;47.278;10.984;2024-02-14T13:45:07;0.93;;;0.82;;
85725;SDS011;76169;47.278;10.984;2024-02-14T13:47:39;1.48;;;1.05;;
85725;SDS011;76169;47.278;10.984;2024-02-14T13:50:07;1.00;;;0.90;;
85725;SDS011;76169;47.278;10.984;2024-02-14T13:52:33;1.08;;;0.98;;
85725;SDS011;76169;47.278;10.984;2024-02-14T13:55:01;1.30;;;1.10;;
85725;SDS011;76169;47.278;10.984;2024-02-14T13:57:27;1.65;;;1.10;;
85725;SDS011;76169;47.278;10.984;2024-02-14T13:59:54;1.00;;;0.90;;
85725;SDS011;76169;47.278;10.984;2024-02-14T14:02:21;1.00;;;1.00;;
85725;SDS011;76169;47.278;10.984;2024-02-14T14:04:48;1.02;;;0.93;;
85725;SDS011;76169;47.278;10.984;2024-02-14T14:07:14;1.50;;;1.27;;
85725;SDS011;76169;47.278;10.984;2024-02-14T14:09:40;1.65;;;1.15;;
85725;SDS011;76169;47.278;10.984;2024-02-14T14:12:06;0.95;;;0.85;;
85725;SDS011;76169;47.278;10.984;2024-02-14T14:14:32;1.30;;;1.20;;
85725;SDS011;76169;47.278;10.984;2024-02-14T14:16:58;1.10;;;1.00;;
85725;SDS011;76169;47.278;10.984;2024-02-14T14:19:24;1.27;;;1.10;;
85725;SDS011;76169;47.278;10.984;2024-02-14T14:21:51;1.17;;;1.08;;
85725;SDS011;76169;47.278;10.984;2024-02-14T14:24:17;1.10;;;1.00;;
85725;SDS011;76169;47.278;10.984;2024-02-14T14:26:43;1.02;;;0.93;;
85725;SDS011;76169;47.278;10.984;2024-02-14T14:29:10;1.23;;;1.10;;
85725;SDS011;76169;47.278;10.984;2024-02-14T14:31:36;1.13;;;1.00;;